Terminal Aerodrome Forecast
Issued by NWS

Home | Current Version | Previous Version | Graphics & Text | Print | Product List | Glossary On
Versions: 1 2 3 4 5 6 7 8 9 10 11 12
000
FTUS43 KICT 191120
TAFRSL
TAF
KRSL 191120Z 1912/2012 00000KT P6SM SKC
     FM191700 17012KT P6SM FEW250
     FM200500 18014KT P6SM FEW200 WS020/19045KT
     FM201100 18014G20KT P6SM FEW015 SCT200=

USA.gov is the U.S. government's official web portal to all federal, state and local government web resources and services.